createdAt,value
2019-02-20T00:00:48.389Z,8.37
2019-02-20T00:03:16.228Z,7.30
2019-02-20T00:05:44.129Z,7.67
2019-02-20T00:08:12.031Z,8.43
2019-02-20T00:10:39.877Z,8.10
2019-02-20T00:13:07.846Z,8.10
2019-02-20T00:15:35.819Z,7.20
2019-02-20T00:18:03.637Z,7.87
2019-02-20T00:20:31.403Z,8.37
2019-02-20T00:22:59.327Z,7.80
2019-02-20T00:25:27.148Z,8.63
2019-02-20T00:27:55.072Z,6.63
2019-02-20T00:30:22.998Z,8.53
2019-02-20T00:32:50.913Z,9.50
2019-02-20T00:35:18.841Z,7.50
2019-02-20T00:37:46.601Z,7.00
2019-02-20T00:40:14.386Z,6.83
2019-02-20T00:42:42.274Z,7.20
2019-02-20T00:45:28.280Z,6.60
2019-02-20T00:48:14.268Z,7.30
2019-02-20T00:50:43.264Z,7.57
2019-02-20T00:53:20.269Z,8.63
2019-02-20T00:55:48.079Z,7.40
2019-02-20T00:58:15.989Z,7.10
2019-02-20T01:00:44.102Z,7.43
2019-02-20T01:03:12.034Z,7.00
2019-02-20T01:05:39.930Z,8.10
2019-02-20T01:08:13.267Z,7.63
2019-02-20T01:10:41.866Z,6.90
2019-02-20T01:13:09.741Z,7.97
2019-02-20T01:15:37.994Z,8.10
2019-02-20T01:18:06.040Z,8.60
2019-02-20T01:20:33.901Z,9.07
2019-02-20T01:23:02.074Z,9.83
2019-02-20T01:25:31.656Z,8.10
2019-02-20T01:27:59.855Z,8.53
2019-02-20T01:30:27.945Z,7.60
2019-02-20T01:32:57.730Z,8.33
2019-02-20T01:35:25.729Z,8.40
2019-02-20T01:37:53.789Z,8.00
2019-02-20T01:40:21.790Z,8.33
2019-02-20T01:42:49.848Z,8.17
2019-02-20T01:45:18.907Z,8.33
2019-02-20T01:47:46.979Z,8.47
2019-02-20T01:50:16.170Z,7.93
2019-02-20T01:52:44.043Z,9.10
2019-02-20T01:55:11.897Z,8.50
2019-02-20T01:57:41.793Z,9.03
2019-02-20T02:00:10.287Z,8.97
2019-02-20T02:02:38.678Z,7.93
2019-02-20T02:05:14.775Z,8.40
2019-02-20T02:07:37.229Z,8.77
2019-02-20T02:10:07.011Z,9.57
2019-02-20T02:12:35.248Z,8.97
2019-02-20T02:15:03.739Z,9.03
2019-02-20T02:17:31.543Z,8.47
2019-02-20T02:19:59.332Z,10.10
2019-02-20T02:22:27.216Z,9.17
2019-02-20T02:24:54.969Z,8.70
2019-02-20T02:27:22.735Z,9.00
2019-02-20T02:29:50.625Z,9.33
2019-02-20T02:32:18.418Z,8.50
2019-02-20T02:34:46.309Z,8.80
2019-02-20T02:37:14.268Z,9.40
2019-02-20T02:39:42.044Z,9.20
2019-02-20T02:42:09.933Z,10.13
2019-02-20T02:44:39.014Z,9.80
2019-02-20T02:47:06.806Z,9.10
2019-02-20T02:49:34.747Z,10.77
2019-02-20T02:52:02.530Z,10.57
2019-02-20T02:54:30.508Z,9.23
2019-02-20T02:56:58.414Z,10.20
2019-02-20T02:59:26.200Z,8.60
2019-02-20T03:01:53.969Z,9.30
2019-02-20T03:04:22.046Z,9.73
2019-02-20T03:06:50.054Z,9.30
2019-02-20T03:09:17.826Z,9.33
2019-02-20T03:11:45.793Z,9.13
2019-02-20T03:14:13.562Z,10.37
2019-02-20T03:16:43.699Z,9.50
2019-02-20T03:19:11.653Z,9.40
2019-02-20T03:21:39.562Z,11.20
2019-02-20T03:24:07.354Z,10.00
2019-02-20T03:26:35.119Z,10.50
2019-02-20T03:29:03.037Z,10.97
2019-02-20T03:31:32.505Z,9.73
2019-02-20T03:34:04.374Z,9.90
2019-02-20T03:36:32.489Z,11.90
2019-02-20T03:39:04.151Z,10.20
2019-02-20T03:41:31.935Z,11.10
2019-02-20T03:43:59.728Z,9.80
2019-02-20T03:46:27.656Z,9.57
2019-02-20T03:48:55.435Z,10.60
2019-02-20T03:51:23.197Z,10.40
2019-02-20T03:53:52.247Z,10.53
2019-02-20T03:56:20.572Z,11.00
2019-02-20T03:58:48.345Z,9.80
2019-02-20T04:01:16.131Z,10.97
2019-02-20T04:03:44.030Z,11.10
2019-02-20T04:06:11.813Z,10.97
2019-02-20T04:08:39.579Z,10.43
2019-02-20T04:11:07.704Z,10.20
2019-02-20T04:13:35.676Z,10.87
2019-02-20T04:16:03.649Z,10.63
2019-02-20T04:18:31.619Z,11.00
2019-02-20T04:21:02.405Z,10.83
2019-02-20T04:23:30.324Z,10.00
2019-02-20T04:25:58.099Z,11.43
2019-02-20T04:28:25.860Z,10.60
2019-02-20T04:30:53.845Z,10.63
2019-02-20T04:33:21.614Z,11.17
2019-02-20T04:35:49.587Z,10.23
2019-02-20T04:38:17.347Z,10.80
2019-02-20T04:40:45.320Z,11.17
2019-02-20T04:43:13.101Z,10.50
2019-02-20T04:45:40.882Z,11.70
2019-02-20T04:48:08.830Z,11.10
2019-02-20T04:50:36.600Z,13.97
2019-02-20T04:53:04.382Z,14.20
2019-02-20T04:55:32.352Z,14.07
2019-02-20T04:58:20.223Z,14.10
2019-02-20T05:00:48.141Z,14.13
2019-02-20T05:03:15.957Z,13.27
2019-02-20T05:05:43.890Z,13.57
2019-02-20T05:08:11.661Z,12.30
2019-02-20T05:10:39.660Z,13.87
2019-02-20T05:13:07.598Z,11.90
2019-02-20T05:15:35.370Z,13.20
2019-02-20T05:18:03.167Z,12.30
2019-02-20T05:20:31.147Z,12.10
2019-02-20T05:22:58.934Z,12.93
2019-02-20T05:25:26.710Z,12.00
2019-02-20T05:27:54.622Z,13.27
2019-02-20T05:30:22.379Z,13.10
2019-02-20T05:32:50.268Z,12.50
2019-02-20T05:35:18.069Z,12.70
2019-02-20T05:37:45.859Z,12.53
2019-02-20T05:40:15.824Z,12.87
2019-02-20T05:42:43.602Z,12.73
2019-02-20T05:45:11.493Z,12.17
2019-02-20T05:47:39.436Z,12.63
2019-02-20T05:50:07.511Z,12.23
2019-02-20T05:52:35.431Z,11.63
2019-02-20T05:55:03.679Z,12.37
2019-02-20T05:57:31.443Z,11.70
2019-02-20T05:59:59.419Z,11.40
2019-02-20T06:02:27.698Z,12.20
2019-02-20T06:04:55.663Z,11.73
2019-02-20T06:07:23.575Z,13.23
2019-02-20T06:09:51.441Z,10.87
2019-02-20T06:12:19.395Z,11.57
2019-02-20T06:14:47.454Z,11.60
2019-02-20T06:17:15.219Z,10.90
2019-02-20T06:19:43.200Z,9.37
2019-02-20T06:22:10.971Z,10.70
2019-02-20T06:24:44.096Z,11.20
2019-02-20T06:27:08.653Z,10.47
2019-02-20T06:29:36.401Z,10.27
2019-02-20T06:32:04.268Z,10.40
2019-02-20T06:34:32.272Z,11.80
2019-02-20T06:37:00.246Z,11.33
2019-02-20T06:39:28.210Z,11.33
2019-02-20T06:41:57.107Z,10.70
2019-02-20T06:44:24.860Z,10.83
2019-02-20T06:46:52.768Z,10.27
2019-02-20T06:49:20.538Z,9.17
2019-02-20T06:51:48.489Z,10.93
2019-02-20T06:54:16.296Z,10.13
2019-02-20T06:56:44.054Z,10.00
2019-02-20T06:59:12.001Z,10.90
2019-02-20T07:01:39.777Z,10.27
2019-02-20T07:04:07.546Z,9.90
2019-02-20T07:07:34.974Z,10.97
2019-02-20T07:10:50.087Z,10.00
2019-02-20T07:13:35.578Z,10.90
2019-02-20T07:17:10.468Z,11.23
2019-02-20T07:20:51.013Z,9.83
2019-02-20T07:23:58.642Z,9.73
2019-02-20T07:27:30.936Z,10.57
2019-02-20T07:30:04.688Z,11.40
2019-02-20T07:32:32.487Z,10.40
2019-02-20T07:35:00.391Z,10.57
2019-02-20T07:37:28.468Z,12.70
2019-02-20T07:39:57.386Z,10.73
2019-02-20T07:42:26.663Z,11.00
2019-02-20T07:44:55.952Z,11.90
2019-02-20T07:47:23.774Z,11.40
2019-02-20T07:49:51.713Z,13.00
2019-02-20T07:52:19.505Z,11.67
2019-02-20T07:54:47.339Z,12.07
2019-02-20T07:57:15.315Z,12.90
2019-02-20T07:59:43.160Z,13.50
2019-02-20T08:02:11.068Z,13.60
2019-02-20T08:04:38.835Z,12.77
2019-02-20T08:07:06.800Z,14.27
2019-02-20T08:09:34.611Z,13.87
2019-02-20T08:12:02.543Z,13.80
2019-02-20T08:14:30.315Z,15.33
2019-02-20T08:16:58.493Z,14.43
2019-02-20T08:19:26.458Z,14.67
2019-02-20T08:21:54.439Z,13.50
2019-02-20T08:24:22.233Z,14.40
2019-02-20T08:26:50.181Z,15.37
2019-02-20T08:29:19.136Z,15.80
2019-02-20T08:31:46.904Z,15.90
2019-02-20T08:34:15.015Z,15.60
2019-02-20T08:36:42.788Z,15.37
2019-02-20T08:39:10.554Z,15.80
2019-02-20T08:41:38.409Z,16.40
2019-02-20T08:44:06.171Z,16.30
2019-02-20T08:46:34.204Z,15.77
2019-02-20T08:49:01.950Z,17.50
2019-02-20T08:51:30.021Z,16.23
2019-02-20T08:53:57.999Z,15.53
2019-02-20T08:56:25.787Z,15.40
2019-02-20T08:58:53.735Z,16.27
2019-02-20T09:01:21.510Z,15.07
2019-02-20T09:03:50.591Z,16.03
2019-02-20T09:06:18.368Z,16.60
2019-02-20T09:08:46.129Z,16.30
2019-02-20T09:11:14.011Z,15.37
2019-02-20T09:13:42.292Z,15.87
2019-02-20T09:16:10.265Z,15.67
2019-02-20T09:18:38.240Z,15.40
2019-02-20T09:21:06.013Z,15.23
2019-02-20T09:23:33.905Z,15.13
2019-02-20T09:26:01.847Z,17.63
2019-02-20T09:28:29.616Z,15.80
2019-02-20T09:30:57.594Z,16.37
2019-02-20T09:33:25.570Z,16.67
2019-02-20T09:35:53.367Z,15.73
2019-02-20T09:38:21.147Z,15.93
2019-02-20T09:40:49.075Z,15.03
2019-02-20T09:43:16.866Z,16.23
2019-02-20T09:45:46.546Z,16.37
2019-02-20T09:48:14.344Z,14.73
2019-02-20T09:50:42.397Z,16.13
2019-02-20T09:53:10.185Z,15.90
2019-02-20T09:55:39.288Z,16.17
2019-02-20T09:58:07.306Z,15.23
2019-02-20T10:00:35.089Z,14.97
2019-02-20T10:03:03.093Z,14.20
2019-02-20T10:05:30.913Z,15.30
2019-02-20T10:07:58.712Z,14.07
2019-02-20T10:10:26.705Z,15.00
2019-02-20T10:12:54.697Z,13.73
2019-02-20T10:15:22.508Z,15.07
2019-02-20T10:17:50.310Z,14.57
2019-02-20T10:20:18.296Z,15.20
2019-02-20T10:22:46.079Z,14.30
2019-02-20T10:25:13.878Z,14.60
2019-02-20T10:27:41.896Z,14.83
2019-02-20T10:30:13.310Z,13.53
2019-02-20T10:32:41.091Z,13.00
2019-02-20T10:35:09.283Z,13.80
2019-02-20T10:37:37.306Z,12.07
2019-02-20T10:40:05.922Z,13.33
2019-02-20T10:42:33.713Z,12.57
2019-02-20T10:45:01.706Z,12.53
2019-02-20T10:47:29.634Z,13.10
2019-02-20T10:49:57.528Z,12.60
2019-02-20T10:52:25.532Z,13.30
2019-02-20T10:54:57.748Z,12.30
2019-02-20T10:57:23.053Z,12.40
2019-02-20T10:59:50.991Z,13.13
2019-02-20T11:02:19.033Z,13.23
2019-02-20T11:04:47.041Z,13.83
2019-02-20T11:07:14.934Z,12.67
2019-02-20T11:09:42.717Z,13.00
2019-02-20T11:12:14.736Z,13.10
2019-02-20T11:14:42.596Z,12.33
2019-02-20T11:17:10.587Z,11.53
2019-02-20T11:19:38.361Z,11.77
2019-02-20T11:22:06.329Z,11.40
2019-02-20T11:24:34.244Z,11.97
2019-02-20T11:27:02.018Z,10.80
2019-02-20T11:29:29.938Z,10.77
2019-02-20T11:31:57.745Z,10.13
2019-02-20T11:34:27.323Z,12.43
2019-02-20T11:36:55.295Z,12.67
2019-02-20T11:39:23.272Z,11.43
2019-02-20T11:41:51.053Z,11.00
2019-02-20T11:44:21.066Z,11.80
2019-02-20T11:46:48.927Z,10.93
2019-02-20T11:49:16.750Z,12.00
2019-02-20T11:51:44.665Z,11.97
2019-02-20T11:54:12.459Z,11.20
2019-02-20T11:56:40.240Z,10.90
2019-02-20T11:59:08.186Z,10.27
2019-02-20T12:01:35.984Z,11.30
2019-02-20T12:04:03.770Z,10.03
2019-02-20T12:06:31.672Z,10.20
2019-02-20T12:08:59.435Z,9.70
2019-02-20T12:11:27.207Z,9.93
2019-02-20T12:13:55.208Z,8.60
2019-02-20T12:16:22.998Z,7.20
2019-02-20T12:18:50.787Z,7.23
2019-02-20T12:21:18.861Z,7.40
2019-02-20T12:23:46.672Z,7.37
2019-02-20T12:26:14.547Z,6.50
2019-02-20T12:28:42.537Z,6.33
2019-02-20T12:31:10.302Z,6.10
2019-02-20T12:33:38.233Z,5.67
2019-02-20T12:36:06.255Z,5.53
2019-02-20T12:38:34.227Z,6.47
2019-02-20T12:41:02.000Z,6.80
2019-02-20T12:43:29.966Z,6.80
2019-02-20T12:45:57.771Z,6.97
2019-02-20T12:48:25.666Z,5.63
2019-02-20T12:50:53.688Z,5.60
2019-02-20T12:53:21.663Z,5.50
2019-02-20T12:55:49.640Z,4.53
2019-02-20T12:58:17.600Z,5.40
2019-02-20T13:00:45.372Z,5.60
2019-02-20T13:03:13.351Z,4.93
2019-02-20T13:05:42.493Z,4.83
2019-02-20T13:08:12.225Z,5.63
2019-02-20T13:10:40.127Z,4.90
2019-02-20T13:13:08.166Z,5.60
2019-02-20T13:15:35.995Z,5.00
2019-02-20T13:18:03.959Z,5.13
2019-02-20T13:20:33.648Z,4.07
2019-02-20T13:23:01.434Z,3.80
2019-02-20T13:25:29.411Z,4.40
2019-02-20T13:27:57.184Z,4.67
2019-02-20T13:30:24.985Z,4.20
2019-02-20T13:32:52.942Z,3.93
2019-02-20T13:35:20.900Z,4.00
2019-02-20T13:37:48.671Z,3.80
2019-02-20T13:40:16.438Z,4.43
2019-02-20T13:42:44.401Z,4.00
2019-02-20T13:45:12.192Z,4.40
2019-02-20T13:47:41.777Z,4.30
2019-02-20T13:50:11.732Z,4.97
2019-02-20T13:52:39.753Z,4.20
2019-02-20T13:55:07.650Z,4.80
2019-02-20T13:57:35.529Z,4.37
2019-02-20T14:00:03.680Z,4.17
2019-02-20T14:02:31.676Z,4.17
2019-02-20T14:04:59.468Z,4.30
2019-02-20T14:07:27.260Z,4.33
2019-02-20T14:09:55.194Z,4.60
2019-02-20T14:12:22.987Z,4.40
2019-02-20T14:14:50.756Z,4.00
2019-02-20T14:17:26.492Z,3.77
2019-02-20T14:19:48.372Z,4.80
2019-02-20T14:22:16.250Z,4.30
2019-02-20T14:24:44.312Z,4.13
2019-02-20T14:27:12.306Z,5.10
2019-02-20T14:29:40.205Z,4.40
2019-02-20T14:32:07.980Z,3.90
2019-02-20T14:34:35.772Z,4.47
2019-02-20T14:37:03.719Z,4.10
2019-02-20T14:39:32.637Z,4.50
2019-02-20T14:42:01.048Z,5.20
2019-02-20T14:44:29.170Z,4.30
2019-02-20T14:46:56.957Z,4.50
2019-02-20T14:49:24.924Z,4.23
2019-02-20T14:51:52.731Z,4.33
2019-02-20T14:54:20.485Z,4.70
2019-02-20T14:56:48.434Z,5.20
2019-02-20T14:59:16.221Z,4.60
2019-02-20T15:01:45.205Z,5.00
2019-02-20T15:04:13.271Z,4.60
2019-02-20T15:06:41.078Z,4.17
2019-02-20T15:09:10.676Z,4.97
2019-02-20T15:11:38.628Z,4.50
2019-02-20T15:14:06.412Z,5.00
2019-02-20T15:16:34.217Z,4.40
2019-02-20T15:19:02.137Z,4.37
2019-02-20T15:21:29.982Z,4.37
2019-02-20T15:23:57.774Z,4.00
2019-02-20T15:26:27.692Z,6.33
2019-02-20T15:28:55.474Z,5.30
2019-02-20T15:31:23.414Z,4.80
2019-02-20T15:33:51.314Z,4.40
2019-02-20T15:36:20.408Z,5.33
2019-02-20T15:38:48.379Z,5.73
2019-02-20T15:41:16.465Z,5.20
2019-02-20T15:43:44.284Z,4.57
2019-02-20T15:46:13.076Z,4.60
2019-02-20T15:48:42.632Z,4.10
2019-02-20T15:51:11.378Z,4.70
2019-02-20T15:53:40.139Z,5.30
2019-02-20T15:56:09.069Z,5.93
2019-02-20T15:58:38.017Z,5.23
2019-02-20T16:01:09.220Z,5.33
2019-02-20T16:03:38.202Z,6.70
2019-02-20T16:06:07.689Z,7.30
2019-02-20T16:08:38.193Z,6.90
2019-02-20T16:11:07.089Z,7.33
2019-02-20T16:13:34.934Z,7.43
2019-02-20T16:16:02.932Z,8.63
2019-02-20T16:18:30.745Z,8.60
2019-02-20T16:20:58.669Z,8.33
2019-02-20T16:23:27.208Z,8.43
2019-02-20T16:25:56.275Z,9.20
2019-02-20T16:28:33.552Z,9.07
2019-02-20T16:30:55.888Z,8.50
2019-02-20T16:33:24.632Z,8.73
2019-02-20T16:35:53.436Z,8.47
2019-02-20T16:38:21.431Z,9.20
2019-02-20T16:40:49.220Z,10.03
2019-02-20T16:43:17.600Z,10.03
2019-02-20T16:45:45.415Z,8.70
2019-02-20T16:48:13.216Z,8.70
2019-02-20T16:50:41.319Z,8.47
2019-02-20T16:53:10.900Z,10.27
2019-02-20T16:55:38.682Z,9.80
2019-02-20T16:58:07.086Z,9.80
2019-02-20T17:00:35.489Z,9.67
2019-02-20T17:03:03.489Z,10.13
2019-02-20T17:05:31.287Z,9.87
2019-02-20T17:07:59.283Z,10.70
2019-02-20T17:10:27.086Z,10.17
2019-02-20T17:12:56.695Z,10.20
2019-02-20T17:15:24.643Z,11.07
2019-02-20T17:17:53.132Z,10.27
2019-02-20T17:20:21.584Z,10.83
2019-02-20T17:22:49.884Z,10.90
2019-02-20T17:25:18.679Z,10.60
2019-02-20T17:27:46.730Z,11.17
2019-02-20T17:30:18.427Z,10.63
2019-02-20T17:32:46.253Z,10.27
2019-02-20T17:35:16.842Z,11.17
2019-02-20T17:37:44.686Z,11.40
2019-02-20T17:40:13.302Z,12.40
2019-02-20T17:42:42.411Z,11.40
2019-02-20T17:45:11.080Z,10.90
2019-02-20T17:47:38.865Z,11.00
2019-02-20T17:50:10.999Z,11.70
2019-02-20T17:52:38.776Z,11.63
2019-02-20T17:55:07.874Z,11.57
2019-02-20T17:57:36.027Z,11.87
2019-02-20T18:00:06.116Z,12.20
2019-02-20T18:02:34.142Z,11.80
2019-02-20T18:05:01.947Z,12.33
2019-02-20T18:07:29.770Z,12.47
2019-02-20T18:09:57.803Z,12.87
2019-02-20T18:12:25.587Z,13.23
2019-02-20T18:14:53.380Z,13.23
2019-02-20T18:17:23.519Z,13.70
2019-02-20T18:19:51.322Z,13.83
2019-02-20T18:22:19.265Z,14.23
2019-02-20T18:24:47.076Z,14.33
2019-02-20T18:27:14.863Z,11.93
2019-02-20T18:29:42.878Z,12.87
2019-02-20T18:32:14.185Z,13.43
2019-02-20T18:34:42.040Z,12.20
2019-02-20T18:37:10.098Z,12.83
2019-02-20T18:39:37.886Z,13.37
2019-02-20T18:42:05.782Z,12.33
2019-02-20T18:44:33.674Z,12.00
2019-02-20T18:47:01.513Z,11.70
2019-02-20T18:49:29.301Z,12.13
2019-02-20T18:51:57.314Z,11.07
2019-02-20T18:54:25.108Z,9.20
2019-02-20T18:56:52.874Z,8.77
2019-02-20T18:59:20.938Z,9.13
2019-02-20T19:01:48.826Z,9.10
2019-02-20T19:04:16.685Z,8.47
2019-02-20T19:06:44.755Z,9.00
2019-02-20T19:09:26.339Z,8.87
2019-02-20T19:12:54.764Z,8.47
2019-02-20T19:15:57.337Z,7.60
2019-02-20T19:19:29.322Z,7.50
2019-02-20T19:22:40.724Z,6.90
2019-02-20T19:26:02.636Z,7.80
2019-02-20T19:29:47.169Z,7.07
2019-02-20T19:33:07.189Z,6.93
2019-02-20T19:40:31.187Z,7.83
2019-02-20T19:43:47.971Z,6.40
2019-02-20T19:47:05.537Z,7.00
2019-02-20T19:50:29.385Z,6.40
2019-02-20T19:53:31.935Z,7.03
2019-02-20T19:56:38.270Z,6.93
2019-02-20T20:00:11.247Z,7.10
2019-02-20T20:03:53.198Z,6.63
2019-02-20T20:07:08.662Z,6.33
2019-02-20T20:10:12.808Z,7.23
2019-02-20T20:13:21.369Z,6.53
2019-02-20T20:16:23.467Z,6.03
2019-02-20T20:19:29.684Z,5.87
2019-02-20T20:22:55.384Z,6.20
2019-02-20T20:26:25.449Z,7.00
2019-02-20T20:29:41.742Z,7.57
2019-02-20T20:32:30.215Z,7.07
2019-02-20T20:35:46.557Z,7.00
2019-02-20T20:38:56.799Z,7.50
2019-02-20T20:42:33.841Z,7.93
2019-02-20T20:46:17.812Z,7.83
2019-02-20T20:50:01.411Z,8.37
2019-02-20T20:53:20.695Z,8.13
2019-02-20T20:56:38.272Z,8.70
2019-02-20T20:59:53.216Z,8.87
2019-02-20T21:02:54.633Z,8.70
2019-02-20T21:06:40.488Z,8.27
2019-02-20T21:09:29.334Z,9.10
2019-02-20T21:16:20.419Z,10.37
2019-02-20T21:19:29.615Z,10.50
2019-02-20T21:22:56.451Z,11.07
2019-02-20T21:26:25.206Z,11.10
2019-02-20T21:29:38.502Z,10.77
2019-02-20T21:33:00.605Z,10.93
2019-02-20T21:36:12.839Z,11.10
2019-02-20T21:39:38.277Z,11.27
2019-02-20T21:42:36.712Z,11.83
2019-02-20T21:45:43.818Z,13.03
2019-02-20T21:48:53.638Z,11.80
2019-02-20T21:52:18.193Z,13.60
2019-02-20T21:55:41.430Z,14.00
2019-02-20T22:02:49.293Z,14.47
2019-02-20T22:05:55.489Z,13.10
2019-02-20T22:09:34.901Z,13.60
2019-02-20T22:13:18.048Z,13.67
2019-02-20T22:16:34.299Z,13.73
2019-02-20T22:19:28.920Z,17.43
2019-02-20T22:22:50.089Z,15.87
2019-02-20T22:25:58.418Z,17.97
2019-02-20T22:28:58.885Z,17.03
2019-02-20T22:32:33.923Z,16.70
2019-02-20T22:35:55.708Z,15.70
2019-02-20T22:39:21.072Z,18.10
2019-02-20T22:46:30.537Z,16.70
2019-02-20T22:49:36.326Z,17.50
2019-02-20T22:52:41.932Z,18.60
2019-02-20T22:56:19.471Z,18.07
2019-02-20T22:59:27.145Z,18.77
2019-02-20T23:03:04.102Z,18.93
2019-02-20T23:06:18.471Z,18.67
2019-02-20T23:09:09.829Z,19.53
2019-02-20T23:12:16.042Z,19.70
2019-02-20T23:14:57.161Z,18.90
2019-02-20T23:17:27.140Z,20.10
2019-02-20T23:19:55.517Z,20.30
2019-02-20T23:22:23.508Z,19.40
2019-02-20T23:24:51.272Z,20.30
2019-02-20T23:27:20.346Z,21.00
2019-02-20T23:29:48.372Z,23.20
2019-02-20T23:32:16.146Z,21.50
2019-02-20T23:34:43.923Z,22.60
2019-02-20T23:37:11.889Z,20.30
2019-02-20T23:39:39.850Z,23.17
2019-02-20T23:42:07.758Z,20.87
2019-02-20T23:44:35.532Z,21.20
2019-02-20T23:47:03.470Z,22.27
2019-02-20T23:49:31.453Z,23.90
2019-02-20T23:51:59.225Z,24.03
2019-02-20T23:54:27.003Z,22.30
2019-02-20T23:56:54.952Z,25.50
2019-02-20T23:59:24.036Z,24.00
